Hovedside
METAR-TAF:

METAR-TAF

Lufthavner :

Båtsfjord lufthavn

Båtsfjord, Norge

breddegrad: 70-38N, lengdegrad: 029-44E, høyde over havet: 10 m

Gjeldene værobservasjon

Denne rapporten ble laget for 18 minutter siden, klokken 04:50 UTC
Vind 5 kt fra Sør-sørvest
Temperatur 2°C
Luftfuktighet 75%
Trykk 1027 hPa
Sikt 10 km eller mer
Brutte skyer i en høyde av 2800 ft

METAR: ENBS 250450Z 20005KT 9999 BKN028 02/M02 Q1027

Tid: 07:08 (05:08 UTC)


TAF: fraværende

Værobservasjoner og værvarsel for over 4000 flyplasser (METAR- og TAF-rapporter).

Tilgjengelige stasjoner er representert av de røde og gule prikkene på kartet.

Hold musepekeren over prikken for å se navnet på stasjonen.

Klikk så for å se værobservasjoner og -varsler.

For å forandre kartet kan du klikke på den grønne knappen med svart kryss for å zoome inn, på den grønne knappen med strek for å zoome ut, eller på de grønne pilene for å se tilstøtende kart.


METAR-TAF: